createdAt,value
2017-05-10T00:00:18.094Z,4.93
2017-05-10T00:01:18.702Z,4.94
2017-05-10T00:02:19.311Z,4.92
2017-05-10T00:03:19.920Z,4.94
2017-05-10T00:04:20.529Z,4.97
2017-05-10T00:05:21.137Z,5.00
2017-05-10T00:06:21.746Z,5.07
2017-05-10T00:07:22.363Z,5.00
2017-05-10T00:08:22.970Z,5.12
2017-05-10T00:09:23.579Z,5.04
2017-05-10T00:10:24.188Z,5.10
2017-05-10T00:11:24.852Z,4.99
2017-05-10T00:12:25.457Z,5.00
2017-05-10T00:13:26.072Z,5.00
2017-05-10T00:14:26.684Z,5.02
2017-05-10T00:15:27.291Z,5.07
2017-05-10T00:16:27.953Z,4.96
2017-05-10T00:17:28.568Z,4.92
2017-05-10T00:18:29.174Z,4.93
2017-05-10T00:19:29.783Z,5.02
2017-05-10T00:20:30.392Z,4.92
2017-05-10T00:21:31.057Z,4.92
2017-05-10T00:22:31.670Z,5.05
2017-05-10T00:23:32.284Z,4.96
2017-05-10T00:24:32.889Z,4.94
2017-05-10T00:25:33.533Z,4.84
2017-05-10T00:26:34.191Z,4.82
2017-05-10T00:27:34.833Z,4.90
2017-05-10T00:28:35.441Z,4.77
2017-05-10T00:29:36.050Z,4.70
2017-05-10T00:30:36.665Z,4.67
2017-05-10T00:31:37.268Z,4.77
2017-05-10T00:32:37.883Z,4.68
2017-05-10T00:33:38.487Z,4.74
2017-05-10T00:34:39.130Z,4.78
2017-05-10T00:35:39.743Z,4.78
2017-05-10T00:36:40.349Z,4.70
2017-05-10T00:37:40.957Z,4.68
2017-05-10T00:38:41.567Z,4.84
2017-05-10T00:39:42.177Z,4.75
2017-05-10T00:40:42.794Z,4.75
2017-05-10T00:41:43.451Z,4.67
2017-05-10T00:42:44.059Z,4.71
2017-05-10T00:43:44.669Z,4.78
2017-05-10T00:44:45.278Z,4.70
2017-05-10T00:45:45.884Z,4.68
2017-05-10T00:46:46.543Z,4.71
2017-05-10T00:47:47.160Z,4.71
2017-05-10T00:48:47.765Z,4.66
2017-05-10T00:49:48.374Z,4.66
2017-05-10T00:50:48.986Z,4.62
2017-05-10T00:51:49.642Z,4.68
2017-05-10T00:52:50.255Z,4.62
2017-05-10T00:53:50.865Z,4.68
2017-05-10T00:54:51.475Z,4.62
2017-05-10T00:55:52.091Z,4.68
2017-05-10T00:56:52.778Z,4.66
2017-05-10T00:57:53.358Z,4.67
2017-05-10T00:58:53.973Z,4.67
2017-05-10T00:59:54.584Z,4.60
2017-05-10T01:00:55.195Z,4.66
2017-05-10T01:01:55.803Z,4.66
2017-05-10T01:02:56.414Z,4.60
2017-05-10T01:03:57.022Z,4.63
2017-05-10T01:04:57.670Z,4.60
2017-05-10T01:05:58.277Z,4.58
2017-05-10T01:06:58.884Z,4.56
2017-05-10T01:07:59.492Z,4.60
2017-05-10T01:09:00.134Z,4.55
2017-05-10T01:10:00.748Z,4.63
2017-05-10T01:11:01.356Z,4.53
2017-05-10T01:12:01.964Z,4.58
2017-05-10T01:13:02.573Z,4.62
2017-05-10T01:14:03.217Z,4.53
2017-05-10T01:15:03.824Z,4.53
2017-05-10T01:16:04.432Z,4.53
2017-05-10T01:17:05.091Z,4.60
2017-05-10T01:18:05.702Z,4.50
2017-05-10T01:19:06.307Z,4.62
2017-05-10T01:20:06.949Z,4.58
2017-05-10T01:21:07.557Z,4.66
2017-05-10T01:22:08.173Z,4.63
2017-05-10T01:23:08.781Z,4.66
2017-05-10T01:24:09.389Z,4.58
2017-05-10T01:25:09.997Z,4.50
2017-05-10T01:26:10.606Z,4.58
2017-05-10T01:27:11.215Z,4.56
2017-05-10T01:28:11.825Z,4.56
2017-05-10T01:29:12.433Z,4.55
2017-05-10T01:30:13.041Z,4.58
2017-05-10T01:31:13.649Z,4.58
2017-05-10T01:32:14.340Z,4.52
2017-05-10T01:33:14.947Z,4.38
2017-05-10T01:34:15.588Z,4.37
2017-05-10T01:35:16.197Z,4.34
2017-05-10T01:36:16.807Z,4.35
2017-05-10T01:37:17.424Z,4.26
2017-05-10T01:38:18.025Z,4.22
2017-05-10T01:39:18.641Z,4.22
2017-05-10T01:40:19.251Z,4.26
2017-05-10T01:41:19.857Z,4.13
2017-05-10T01:42:20.515Z,4.20
2017-05-10T01:43:21.124Z,4.12
2017-05-10T01:44:21.737Z,4.14
2017-05-10T01:45:22.345Z,4.10
2017-05-10T01:46:22.957Z,4.13
2017-05-10T01:47:23.565Z,4.12
2017-05-10T01:48:24.175Z,4.08
2017-05-10T01:49:24.789Z,4.20
2017-05-10T01:50:25.393Z,4.26
2017-05-10T01:51:26.002Z,4.23
2017-05-10T01:52:26.645Z,4.23
2017-05-10T01:53:27.256Z,4.30
2017-05-10T01:54:27.904Z,4.20
2017-05-10T01:55:28.509Z,4.30
2017-05-10T01:56:29.125Z,4.28
2017-05-10T01:57:29.786Z,4.28
2017-05-10T01:58:30.427Z,4.28
2017-05-10T01:59:31.035Z,4.34
2017-05-10T02:00:31.646Z,4.28
2017-05-10T02:01:32.257Z,4.34
2017-05-10T02:02:32.870Z,4.20
2017-05-10T02:03:33.475Z,4.34
2017-05-10T02:04:34.083Z,4.31
2017-05-10T02:05:34.693Z,4.35
2017-05-10T02:06:35.302Z,4.23
2017-05-10T02:07:35.913Z,4.14
2017-05-10T02:08:36.523Z,4.37
2017-05-10T02:09:37.130Z,4.16
2017-05-10T02:10:37.740Z,4.30
2017-05-10T02:11:38.380Z,4.24
2017-05-10T02:12:38.995Z,4.22
2017-05-10T02:13:39.610Z,4.24
2017-05-10T02:14:40.221Z,4.20
2017-05-10T02:15:40.829Z,4.24
2017-05-10T02:16:41.437Z,4.28
2017-05-10T02:17:42.046Z,4.14
2017-05-10T02:18:42.660Z,4.19
2017-05-10T02:19:43.272Z,4.12
2017-05-10T02:20:43.881Z,4.13
2017-05-10T02:21:44.519Z,4.08
2017-05-10T02:22:45.133Z,4.04
2017-05-10T02:23:45.778Z,4.04
2017-05-10T02:24:46.385Z,3.98
2017-05-10T02:25:47.001Z,3.99
2017-05-10T02:26:47.607Z,3.99
2017-05-10T02:27:48.264Z,4.06
2017-05-10T02:28:48.874Z,4.08
2017-05-10T02:29:49.482Z,3.98
2017-05-10T02:30:50.091Z,4.01
2017-05-10T02:31:50.700Z,4.02
2017-05-10T02:32:51.307Z,3.98
2017-05-10T02:33:51.916Z,3.96
2017-05-10T02:34:52.557Z,3.98
2017-05-10T02:35:53.167Z,3.99
2017-05-10T02:36:53.782Z,3.95
2017-05-10T02:37:54.480Z,3.88
2017-05-10T02:38:55.122Z,3.94
2017-05-10T02:39:55.730Z,3.92
2017-05-10T02:40:56.339Z,3.95
2017-05-10T02:41:56.953Z,3.96
2017-05-10T02:42:57.567Z,3.94
2017-05-10T02:43:58.168Z,3.99
2017-05-10T02:44:58.776Z,3.96
2017-05-10T02:45:59.383Z,4.02
2017-05-10T02:46:59.990Z,4.01
2017-05-10T02:48:00.600Z,3.98
2017-05-10T02:49:01.210Z,3.94
2017-05-10T02:50:01.820Z,3.92
2017-05-10T02:51:02.427Z,3.88
2017-05-10T02:52:03.039Z,3.94
2017-05-10T02:53:03.646Z,3.86
2017-05-10T02:54:04.254Z,3.83
2017-05-10T02:55:04.862Z,3.86
2017-05-10T02:56:05.470Z,3.83
2017-05-10T02:57:06.078Z,3.84
2017-05-10T02:58:06.685Z,3.83
2017-05-10T02:59:07.292Z,3.83
2017-05-10T03:00:07.907Z,3.88
2017-05-10T03:01:08.513Z,3.83
2017-05-10T03:02:09.126Z,3.78
2017-05-10T03:03:09.788Z,3.84
2017-05-10T03:04:10.402Z,3.86
2017-05-10T03:05:11.003Z,3.87
2017-05-10T03:06:11.613Z,3.91
2017-05-10T03:07:12.218Z,3.83
2017-05-10T03:08:12.826Z,3.83
2017-05-10T03:09:13.441Z,3.91
2017-05-10T03:10:14.046Z,3.94
2017-05-10T03:11:14.655Z,3.87
2017-05-10T03:12:15.267Z,3.95
2017-05-10T03:13:15.873Z,3.95
2017-05-10T03:14:16.482Z,3.88
2017-05-10T03:15:17.095Z,3.94
2017-05-10T03:16:17.736Z,3.92
2017-05-10T03:17:18.350Z,3.92
2017-05-10T03:18:19.006Z,3.98
2017-05-10T03:19:19.616Z,3.92
2017-05-10T03:20:20.232Z,3.94
2017-05-10T03:21:20.835Z,3.92
2017-05-10T03:22:21.445Z,3.91
2017-05-10T03:23:22.053Z,3.91
2017-05-10T03:24:22.660Z,3.91
2017-05-10T03:25:23.270Z,3.94
2017-05-10T03:26:23.874Z,3.94
2017-05-10T03:27:24.484Z,3.83
2017-05-10T03:28:25.096Z,3.83
2017-05-10T03:29:25.703Z,3.86
2017-05-10T03:30:26.313Z,3.87
2017-05-10T03:31:26.928Z,3.80
2017-05-10T03:32:27.570Z,3.87
2017-05-10T03:33:28.212Z,3.92
2017-05-10T03:34:28.828Z,3.81
2017-05-10T03:35:29.433Z,3.78
2017-05-10T03:36:30.074Z,3.77
2017-05-10T03:37:30.688Z,3.77
2017-05-10T03:38:31.293Z,3.83
2017-05-10T03:39:31.903Z,3.78
2017-05-10T03:40:32.509Z,3.70
2017-05-10T03:41:33.121Z,3.68
2017-05-10T03:42:33.726Z,3.84
2017-05-10T03:43:34.390Z,3.70
2017-05-10T03:44:34.997Z,3.74
2017-05-10T03:45:35.606Z,3.70
2017-05-10T03:46:36.213Z,3.69
2017-05-10T03:47:36.822Z,3.84
2017-05-10T03:48:37.435Z,3.70
2017-05-10T03:49:38.047Z,3.80
2017-05-10T03:50:38.652Z,3.83
2017-05-10T03:51:39.258Z,3.70
2017-05-10T03:52:39.867Z,3.81
2017-05-10T03:53:40.478Z,3.78
2017-05-10T03:54:41.086Z,3.83
2017-05-10T03:55:41.702Z,3.78
2017-05-10T03:56:42.307Z,3.73
2017-05-10T03:57:42.914Z,3.69
2017-05-10T03:58:43.524Z,3.83
2017-05-10T03:59:44.132Z,3.70
2017-05-10T04:00:44.742Z,3.70
2017-05-10T04:01:45.349Z,3.76
2017-05-10T04:02:45.963Z,3.81
2017-05-10T04:03:46.576Z,3.74
2017-05-10T04:04:47.190Z,3.87
2017-05-10T04:05:47.793Z,3.77
2017-05-10T04:06:48.400Z,3.80
2017-05-10T04:07:49.009Z,3.76
2017-05-10T04:08:49.668Z,3.83
2017-05-10T04:09:50.275Z,3.81
2017-05-10T04:10:50.882Z,3.88
2017-05-10T04:11:51.492Z,3.80
2017-05-10T04:12:52.101Z,3.81
2017-05-10T04:13:52.796Z,3.78
2017-05-10T04:14:53.405Z,3.78
2017-05-10T04:15:54.021Z,3.84
2017-05-10T04:16:54.627Z,3.78
2017-05-10T04:17:55.236Z,3.77
2017-05-10T04:18:55.846Z,3.73
2017-05-10T04:19:56.486Z,3.78
2017-05-10T04:20:57.126Z,3.81
2017-05-10T04:21:57.738Z,3.80
2017-05-10T04:22:58.345Z,3.77
2017-05-10T04:23:58.954Z,3.77
2017-05-10T04:24:59.565Z,3.78
2017-05-10T04:26:00.173Z,3.81
2017-05-10T04:27:00.816Z,3.77
2017-05-10T04:28:01.466Z,3.73
2017-05-10T04:29:02.069Z,3.74
2017-05-10T04:30:02.677Z,3.83
2017-05-10T04:31:03.287Z,3.83
2017-05-10T04:32:03.898Z,3.87
2017-05-10T04:33:04.509Z,3.88
2017-05-10T04:34:05.173Z,3.83
2017-05-10T04:35:05.778Z,3.83
2017-05-10T04:36:06.429Z,3.83
2017-05-10T04:37:07.031Z,3.80
2017-05-10T04:38:07.640Z,3.88
2017-05-10T04:39:08.254Z,3.84
2017-05-10T04:40:08.861Z,3.83
2017-05-10T04:41:09.472Z,3.87
2017-05-10T04:42:10.081Z,3.81
2017-05-10T04:43:10.722Z,3.91
2017-05-10T04:44:11.337Z,3.81
2017-05-10T04:45:11.941Z,3.87
2017-05-10T04:46:12.559Z,3.92
2017-05-10T04:47:13.199Z,3.94
2017-05-10T04:48:13.815Z,3.94
2017-05-10T04:49:14.471Z,3.92
2017-05-10T04:50:15.081Z,3.96
2017-05-10T04:51:15.693Z,3.87
2017-05-10T04:52:16.303Z,3.99
2017-05-10T04:53:16.911Z,3.92
2017-05-10T04:54:17.571Z,3.92
2017-05-10T04:55:18.180Z,3.95
2017-05-10T04:56:18.793Z,3.92
2017-05-10T04:57:19.401Z,3.88
2017-05-10T04:58:20.013Z,3.92
2017-05-10T04:59:20.670Z,3.91
2017-05-10T05:00:21.285Z,3.92
2017-05-10T05:01:21.891Z,3.98
2017-05-10T05:02:22.506Z,3.94
2017-05-10T05:03:23.118Z,3.98
2017-05-10T05:04:23.726Z,4.04
2017-05-10T05:05:24.344Z,4.02
2017-05-10T05:06:24.946Z,3.98
2017-05-10T05:07:25.557Z,4.02
2017-05-10T05:08:26.166Z,4.04
2017-05-10T05:09:26.823Z,4.10
2017-05-10T05:10:27.437Z,4.06
2017-05-10T05:11:28.045Z,4.12
2017-05-10T05:12:28.659Z,4.08
2017-05-10T05:13:29.265Z,4.10
2017-05-10T05:14:29.878Z,4.10
2017-05-10T05:15:30.520Z,4.08
2017-05-10T05:16:31.133Z,4.06
2017-05-10T05:17:31.738Z,4.13
2017-05-10T05:18:32.347Z,4.17
2017-05-10T05:19:32.955Z,4.08
2017-05-10T05:20:33.565Z,4.08
2017-05-10T05:21:34.175Z,4.16
2017-05-10T05:22:34.786Z,4.12
2017-05-10T05:23:35.396Z,4.17
2017-05-10T05:24:36.054Z,4.14
2017-05-10T05:25:36.663Z,4.16
2017-05-10T05:26:37.278Z,4.08
2017-05-10T05:27:37.885Z,4.16
2017-05-10T05:28:38.502Z,4.14
2017-05-10T05:29:39.114Z,4.05
2017-05-10T05:30:39.721Z,4.12
2017-05-10T05:31:40.331Z,4.16
2017-05-10T05:32:40.939Z,4.13
2017-05-10T05:33:41.554Z,4.13
2017-05-10T05:34:42.211Z,4.10
2017-05-10T05:35:42.822Z,4.12
2017-05-10T05:36:43.431Z,4.10
2017-05-10T05:37:44.045Z,4.08
2017-05-10T05:38:44.687Z,4.22
2017-05-10T05:39:45.298Z,4.13
2017-05-10T05:40:45.913Z,4.17
2017-05-10T05:41:46.518Z,4.08
2017-05-10T05:42:47.161Z,4.10
2017-05-10T05:43:47.770Z,4.08
2017-05-10T05:44:48.435Z,4.13
2017-05-10T05:45:49.048Z,4.24
2017-05-10T05:46:49.654Z,4.24
2017-05-10T05:47:50.268Z,4.30
2017-05-10T05:48:50.875Z,4.37
2017-05-10T05:49:51.485Z,4.38
2017-05-10T05:50:52.092Z,4.37
2017-05-10T05:51:52.701Z,4.44
2017-05-10T05:52:53.314Z,4.34
2017-05-10T05:53:53.923Z,4.38
2017-05-10T05:54:54.615Z,4.45
2017-05-10T05:55:55.225Z,4.45
2017-05-10T05:56:55.838Z,4.55
2017-05-10T05:57:56.444Z,4.62
2017-05-10T05:58:57.061Z,4.66
2017-05-10T05:59:57.666Z,4.71
2017-05-10T06:00:58.275Z,4.68
2017-05-10T06:01:58.915Z,4.75
2017-05-10T06:02:59.526Z,4.82
2017-05-10T06:04:00.133Z,4.82
2017-05-10T06:05:00.792Z,4.90
2017-05-10T06:06:01.405Z,4.96
2017-05-10T06:07:02.048Z,4.96
2017-05-10T06:08:02.657Z,4.92
2017-05-10T06:09:03.267Z,5.02
2017-05-10T06:10:03.925Z,5.10
2017-05-10T06:11:04.542Z,5.14
2017-05-10T06:12:05.189Z,5.12
2017-05-10T06:13:05.796Z,5.11
2017-05-10T06:14:06.443Z,5.26
2017-05-10T06:15:07.050Z,5.29
2017-05-10T06:16:07.658Z,5.33
2017-05-10T06:17:08.268Z,5.32
2017-05-10T06:18:08.890Z,5.28
2017-05-10T06:19:09.530Z,5.36
2017-05-10T06:20:10.156Z,5.36
2017-05-10T06:21:10.765Z,5.41
2017-05-10T06:22:11.375Z,5.32
2017-05-10T06:23:11.988Z,5.47
2017-05-10T06:24:12.599Z,5.50
2017-05-10T06:25:13.258Z,5.39
2017-05-10T06:26:13.875Z,5.64
2017-05-10T06:27:14.522Z,5.59
2017-05-10T06:28:15.131Z,5.57
2017-05-10T06:29:15.744Z,5.68
2017-05-10T06:30:16.348Z,5.64
2017-05-10T06:31:16.996Z,5.68
2017-05-10T06:32:17.602Z,5.69
2017-05-10T06:33:18.214Z,5.72
2017-05-10T06:34:18.856Z,5.73
2017-05-10T06:35:19.468Z,5.75
2017-05-10T06:36:20.079Z,5.83
2017-05-10T06:37:20.694Z,5.83
2017-05-10T06:38:21.301Z,5.80
2017-05-10T06:39:21.913Z,5.89
2017-05-10T06:40:22.572Z,5.86
2017-05-10T06:41:23.184Z,5.82
2017-05-10T06:42:23.795Z,5.93
2017-05-10T06:43:24.414Z,5.93
2017-05-10T06:44:25.022Z,6.01
2017-05-10T06:45:25.683Z,6.02
2017-05-10T06:46:26.299Z,6.07
2017-05-10T06:47:26.914Z,6.14
2017-05-10T06:48:27.525Z,6.16
2017-05-10T06:49:28.142Z,6.17
2017-05-10T06:50:28.757Z,6.20
2017-05-10T06:51:29.372Z,6.09
2017-05-10T06:52:29.985Z,6.19
2017-05-10T06:53:30.599Z,6.28
2017-05-10T06:54:31.247Z,6.38
2017-05-10T06:55:31.857Z,6.36
2017-05-10T06:56:32.475Z,6.45
2017-05-10T06:57:33.082Z,6.48
2017-05-10T06:58:33.693Z,6.57
2017-05-10T06:59:34.314Z,6.51
2017-05-10T07:00:34.974Z,6.62
2017-05-10T07:01:35.586Z,6.49
2017-05-10T07:02:36.198Z,6.51
2017-05-10T07:03:36.811Z,6.51
2017-05-10T07:04:37.425Z,6.52
2017-05-10T07:05:38.094Z,6.52
2017-05-10T07:06:38.705Z,6.52
2017-05-10T07:07:39.317Z,6.59
2017-05-10T07:08:39.931Z,6.62
2017-05-10T07:09:40.544Z,6.64
2017-05-10T07:10:41.206Z,6.57
2017-05-10T07:11:41.818Z,6.63
2017-05-10T07:12:42.436Z,6.64
2017-05-10T07:13:43.052Z,6.64
2017-05-10T07:14:43.663Z,6.75
2017-05-10T07:15:44.330Z,6.93
2017-05-10T07:16:44.947Z,6.87
2017-05-10T07:17:45.562Z,6.96
2017-05-10T07:18:46.173Z,6.99
2017-05-10T07:19:46.790Z,6.99
2017-05-10T07:20:47.401Z,7.03
2017-05-10T07:21:48.013Z,7.07
2017-05-10T07:22:48.625Z,7.02
2017-05-10T07:23:49.245Z,7.05
2017-05-10T07:24:49.862Z,7.02
2017-05-10T07:25:50.526Z,7.03
2017-05-10T07:26:51.138Z,6.97
2017-05-10T07:27:51.751Z,7.11
2017-05-10T07:28:52.364Z,7.10
2017-05-10T07:29:52.977Z,7.11
2017-05-10T07:30:53.598Z,7.24
2017-05-10T07:31:54.204Z,7.33
2017-05-10T07:32:54.816Z,7.39
2017-05-10T07:33:55.431Z,7.35
2017-05-10T07:34:56.045Z,7.40
2017-05-10T07:35:56.712Z,7.42
2017-05-10T07:36:57.322Z,7.42
2017-05-10T07:37:57.934Z,7.47
2017-05-10T07:38:58.548Z,7.38
2017-05-10T07:39:59.199Z,7.38
2017-05-10T07:40:59.900Z,7.48
2017-05-10T07:42:00.511Z,7.57
2017-05-10T07:43:01.130Z,7.58
2017-05-10T07:44:01.776Z,7.76
2017-05-10T07:45:02.389Z,7.77
2017-05-10T07:46:03.050Z,7.93
2017-05-10T07:47:03.665Z,7.83
2017-05-10T07:48:04.311Z,7.97
2017-05-10T07:49:04.924Z,8.00
2017-05-10T07:50:05.537Z,8.10
2017-05-10T07:51:06.200Z,8.33
2017-05-10T07:52:06.815Z,8.31
2017-05-10T07:53:07.427Z,8.38
2017-05-10T07:54:08.082Z,8.44
2017-05-10T07:55:08.690Z,8.41
2017-05-10T07:56:09.352Z,8.49
2017-05-10T07:57:09.996Z,8.38
2017-05-10T07:58:10.610Z,8.37
2017-05-10T07:59:11.257Z,8.33
2017-05-10T08:00:11.869Z,8.36
2017-05-10T08:01:12.487Z,8.44
2017-05-10T08:02:13.136Z,8.37
2017-05-10T08:03:13.755Z,8.36
2017-05-10T08:04:14.370Z,8.38
2017-05-10T08:05:14.984Z,8.36
2017-05-10T08:06:15.597Z,8.33
2017-05-10T08:07:16.215Z,8.36
2017-05-10T08:08:16.868Z,8.48
2017-05-10T08:09:17.478Z,8.51
2017-05-10T08:10:18.098Z,8.48
2017-05-10T08:11:18.758Z,8.51
2017-05-10T08:12:19.377Z,8.46
2017-05-10T08:13:20.026Z,8.53
2017-05-10T08:14:20.635Z,8.58
2017-05-10T08:15:21.249Z,8.63
2017-05-10T08:16:21.916Z,8.60
2017-05-10T08:17:22.535Z,8.60
2017-05-10T08:18:23.146Z,8.63
2017-05-10T08:19:23.762Z,8.84
2017-05-10T08:20:24.376Z,8.88
2017-05-10T08:21:25.046Z,9.04
2017-05-10T08:22:25.656Z,9.10
2017-05-10T08:23:26.276Z,9.23
2017-05-10T08:24:26.894Z,9.13
2017-05-10T08:25:27.547Z,9.13
2017-05-10T08:26:28.208Z,9.16
2017-05-10T08:27:28.825Z,9.16
2017-05-10T08:28:29.441Z,9.25
2017-05-10T08:29:30.054Z,9.32
2017-05-10T08:30:30.675Z,9.50
2017-05-10T08:31:31.326Z,9.65
2017-05-10T08:32:31.942Z,9.84
2017-05-10T08:33:32.554Z,9.97
2017-05-10T08:34:33.167Z,10.10
2017-05-10T08:35:33.784Z,10.09
2017-05-10T08:36:34.450Z,10.10
2017-05-10T08:37:35.067Z,10.16
2017-05-10T08:38:35.687Z,10.25
2017-05-10T08:39:36.300Z,10.40
2017-05-10T08:40:36.923Z,10.30
2017-05-10T08:41:37.592Z,10.37
2017-05-10T08:42:38.205Z,10.38
2017-05-10T08:43:38.821Z,10.44
2017-05-10T08:44:39.437Z,10.42
2017-05-10T08:45:40.052Z,10.51
2017-05-10T08:46:40.671Z,10.42
2017-05-10T08:47:41.283Z,10.37
2017-05-10T08:48:41.900Z,10.33
2017-05-10T08:49:42.550Z,10.34
2017-05-10T08:50:43.172Z,10.44
2017-05-10T08:51:43.828Z,10.54
2017-05-10T08:52:44.443Z,10.60
2017-05-10T08:53:45.056Z,10.63
2017-05-10T08:54:45.671Z,10.69
2017-05-10T08:55:46.325Z,10.72
2017-05-10T08:56:46.991Z,10.74
2017-05-10T08:57:47.607Z,10.72
2017-05-10T08:58:48.223Z,10.64
2017-05-10T08:59:48.839Z,10.61
2017-05-10T09:00:49.460Z,10.54
2017-05-10T09:01:50.125Z,10.49
2017-05-10T09:02:50.741Z,10.41
2017-05-10T09:03:51.356Z,10.46
2017-05-10T09:04:51.974Z,10.48
2017-05-10T09:05:52.591Z,10.40
2017-05-10T09:06:53.207Z,10.46
2017-05-10T09:07:53.824Z,10.49
2017-05-10T09:08:54.445Z,10.53
2017-05-10T09:09:55.059Z,10.53
2017-05-10T09:10:55.676Z,10.63
2017-05-10T09:11:56.343Z,10.69
2017-05-10T09:12:56.959Z,10.69
2017-05-10T09:13:57.576Z,10.68
2017-05-10T09:14:58.195Z,10.72
2017-05-10T09:15:58.844Z,10.74
2017-05-10T09:16:59.512Z,10.89
2017-05-10T09:18:00.129Z,10.93
2017-05-10T09:19:00.776Z,11.00
2017-05-10T09:20:01.425Z,11.14
2017-05-10T09:21:02.042Z,11.25
2017-05-10T09:22:02.660Z,11.32
2017-05-10T09:23:03.274Z,11.40
2017-05-10T09:24:03.898Z,11.27
2017-05-10T09:25:04.511Z,11.19
2017-05-10T09:26:05.133Z,11.19
2017-05-10T09:27:05.796Z,11.29
2017-05-10T09:28:06.415Z,11.36
2017-05-10T09:29:07.067Z,11.36
2017-05-10T09:30:07.689Z,11.45
2017-05-10T09:31:08.309Z,11.52
2017-05-10T09:32:08.922Z,11.60
2017-05-10T09:33:09.540Z,11.72
2017-05-10T09:34:10.194Z,11.73
2017-05-10T09:35:10.810Z,11.69
2017-05-10T09:36:11.461Z,11.66
2017-05-10T09:37:12.077Z,11.63
2017-05-10T09:38:12.702Z,11.59
2017-05-10T09:39:13.322Z,11.63
2017-05-10T09:40:13.938Z,11.73
2017-05-10T09:41:14.555Z,11.73
2017-05-10T09:42:15.177Z,11.86
2017-05-10T09:43:15.790Z,12.09
2017-05-10T09:44:16.407Z,12.06
2017-05-10T09:45:17.031Z,12.07
2017-05-10T09:46:17.644Z,12.00
2017-05-10T09:47:18.311Z,12.10
2017-05-10T09:48:18.928Z,12.03
2017-05-10T09:49:19.545Z,11.94
2017-05-10T09:50:20.163Z,12.21
2017-05-10T09:51:20.785Z,12.28
2017-05-10T09:52:21.484Z,12.31
2017-05-10T09:53:22.100Z,12.31
2017-05-10T09:54:22.749Z,12.29
2017-05-10T09:55:23.368Z,12.21
2017-05-10T09:56:23.983Z,12.06
2017-05-10T09:57:24.602Z,11.90
2017-05-10T09:58:25.224Z,11.77
2017-05-10T09:59:25.848Z,11.70
2017-05-10T10:00:26.459Z,11.80
2017-05-10T10:01:27.076Z,11.80
2017-05-10T10:02:27.743Z,11.86
2017-05-10T10:03:28.363Z,12.02
2017-05-10T10:04:28.979Z,12.20
2017-05-10T10:05:29.596Z,12.09
2017-05-10T10:06:30.220Z,12.21
2017-05-10T10:07:30.884Z,12.12
2017-05-10T10:08:31.501Z,12.22
2017-05-10T10:09:32.117Z,12.20
2017-05-10T10:10:32.742Z,12.31
2017-05-10T10:11:33.357Z,12.32
2017-05-10T10:12:33.973Z,12.29
2017-05-10T10:13:34.592Z,12.27
2017-05-10T10:14:35.207Z,12.31
2017-05-10T10:15:35.826Z,12.32
2017-05-10T10:16:36.443Z,12.39
2017-05-10T10:17:37.115Z,12.57
2017-05-10T10:18:37.728Z,12.68
2017-05-10T10:19:38.350Z,12.80
2017-05-10T10:20:38.964Z,12.79
2017-05-10T10:21:39.585Z,12.93
2017-05-10T10:22:40.202Z,12.97
2017-05-10T10:23:40.827Z,13.01
2017-05-10T10:24:41.440Z,12.78
2017-05-10T10:25:42.065Z,12.67
2017-05-10T10:26:42.680Z,12.57
2017-05-10T10:27:43.298Z,12.75
2017-05-10T10:28:43.915Z,12.97
2017-05-10T10:29:44.537Z,13.01
2017-05-10T10:30:45.153Z,12.93
2017-05-10T10:31:45.770Z,12.70
2017-05-10T10:32:46.393Z,12.73
2017-05-10T10:33:47.049Z,12.70
2017-05-10T10:34:47.664Z,12.70
2017-05-10T10:35:48.281Z,12.67
2017-05-10T10:36:48.904Z,12.82
2017-05-10T10:37:49.519Z,12.90
2017-05-10T10:38:50.138Z,13.15
2017-05-10T10:39:50.762Z,13.04
2017-05-10T10:40:51.380Z,13.16
2017-05-10T10:41:52.003Z,13.27
2017-05-10T10:42:52.669Z,13.35
2017-05-10T10:43:53.292Z,13.30
2017-05-10T10:44:53.947Z,13.25
2017-05-10T10:45:54.562Z,13.19
2017-05-10T10:46:55.187Z,13.12
2017-05-10T10:47:55.853Z,13.13
2017-05-10T10:48:56.469Z,13.33
2017-05-10T10:49:57.093Z,13.50
2017-05-10T10:50:57.709Z,13.56
2017-05-10T10:51:58.329Z,13.52
2017-05-10T10:52:58.995Z,13.53
2017-05-10T10:53:59.612Z,13.53
2017-05-10T10:55:00.231Z,13.63
2017-05-10T10:56:00.849Z,13.74
2017-05-10T10:57:01.473Z,13.77
2017-05-10T10:58:02.139Z,13.79
2017-05-10T10:59:02.759Z,13.99
2017-05-10T11:00:03.382Z,13.96
2017-05-10T11:01:03.999Z,13.90
2017-05-10T11:02:04.658Z,13.77
2017-05-10T11:03:05.275Z,13.70
2017-05-10T11:04:05.899Z,13.54
2017-05-10T11:05:06.522Z,13.60
2017-05-10T11:06:07.143Z,13.57
2017-05-10T11:07:07.759Z,13.57
2017-05-10T11:08:08.427Z,13.60
2017-05-10T11:09:09.054Z,13.59
2017-05-10T11:10:09.677Z,13.72
2017-05-10T11:11:10.293Z,13.81
2017-05-10T11:12:10.920Z,14.08
2017-05-10T11:13:11.543Z,14.11
2017-05-10T11:14:12.160Z,14.10
2017-05-10T11:15:12.786Z,13.97
2017-05-10T11:16:13.438Z,13.97
2017-05-10T11:17:14.059Z,13.96
2017-05-10T11:18:14.735Z,13.99
2017-05-10T11:19:15.350Z,13.95
2017-05-10T11:20:15.971Z,13.77
2017-05-10T11:21:16.629Z,13.78
2017-05-10T11:22:17.246Z,13.83
2017-05-10T11:23:17.916Z,13.96
2017-05-10T11:24:18.540Z,14.07
2017-05-10T11:25:19.159Z,14.07
2017-05-10T11:26:19.783Z,14.20
2017-05-10T11:27:20.402Z,14.32
2017-05-10T11:28:21.326Z,14.33
2017-05-10T11:29:23.146Z,14.33
2017-05-10T11:30:23.765Z,14.28
2017-05-10T11:31:24.417Z,14.28
2017-05-10T11:32:25.037Z,14.41
2017-05-10T11:33:25.713Z,14.33
2017-05-10T11:34:26.336Z,14.35
2017-05-10T11:35:26.953Z,14.30
2017-05-10T11:36:27.572Z,14.36
2017-05-10T11:37:28.223Z,14.40
2017-05-10T11:38:28.896Z,14.45
2017-05-10T11:39:29.513Z,14.54
2017-05-10T11:40:30.139Z,14.59
2017-05-10T11:41:30.755Z,14.51
2017-05-10T11:42:31.375Z,14.40
2017-05-10T11:43:32.297Z,14.48
2017-05-10T11:44:32.923Z,14.36
2017-05-10T11:45:33.546Z,14.37
2017-05-10T11:46:34.168Z,14.47
2017-05-10T11:47:34.785Z,14.54
2017-05-10T11:48:35.710Z,14.44
2017-05-10T11:49:36.366Z,14.29
2017-05-10T11:50:36.989Z,14.50
2017-05-10T11:51:37.609Z,14.45
2017-05-10T11:52:38.234Z,14.60
2017-05-10T11:53:38.900Z,14.62
2017-05-10T11:54:39.521Z,14.60
2017-05-10T11:55:40.148Z,14.55
2017-05-10T11:56:40.765Z,14.59
2017-05-10T11:57:41.386Z,14.55
2017-05-10T11:58:42.061Z,14.50
2017-05-10T11:59:42.683Z,14.65
2017-05-10T12:00:43.300Z,14.62
2017-05-10T12:01:43.920Z,14.47
2017-05-10T12:02:44.539Z,14.54
2017-05-10T12:03:45.157Z,14.48
2017-05-10T12:04:45.779Z,14.59
2017-05-10T12:05:46.403Z,14.65
2017-05-10T12:06:47.024Z,14.65
2017-05-10T12:07:47.644Z,14.41
2017-05-10T12:08:48.315Z,14.30
2017-05-10T12:09:48.935Z,14.17
2017-05-10T12:10:49.555Z,14.29
2017-05-10T12:11:50.176Z,14.15
2017-05-10T12:12:50.797Z,14.20
2017-05-10T12:13:51.500Z,14.29
2017-05-10T12:14:52.120Z,14.48
2017-05-10T12:15:52.777Z,14.66
2017-05-10T12:16:53.397Z,14.63
2017-05-10T12:17:54.016Z,14.63
2017-05-10T12:18:54.637Z,14.96
2017-05-10T12:19:55.294Z,15.11
2017-05-10T12:20:55.948Z,15.17
2017-05-10T12:21:56.574Z,15.15
2017-05-10T12:22:57.192Z,15.28
2017-05-10T12:23:58.017Z,15.19
2017-05-10T12:24:58.641Z,15.24
2017-05-10T12:25:59.268Z,15.33
2017-05-10T12:26:59.882Z,15.31
2017-05-10T12:28:00.505Z,15.37
2017-05-10T12:29:01.125Z,15.44
2017-05-10T12:30:01.747Z,15.31
2017-05-10T12:31:02.369Z,15.28
2017-05-10T12:32:02.988Z,15.31
2017-05-10T12:33:03.610Z,15.21
2017-05-10T12:34:04.230Z,15.29
2017-05-10T12:35:04.852Z,15.39
2017-05-10T12:36:05.477Z,15.55
2017-05-10T12:37:06.094Z,15.70
2017-05-10T12:38:06.714Z,15.68
2017-05-10T12:39:07.385Z,15.70
2017-05-10T12:40:08.008Z,15.64
2017-05-10T12:41:08.628Z,15.76
2017-05-10T12:42:09.249Z,15.86
2017-05-10T12:43:09.874Z,15.95
2017-05-10T12:44:10.549Z,16.02
2017-05-10T12:45:11.168Z,15.84
2017-05-10T12:46:11.790Z,15.82
2017-05-10T12:47:12.409Z,15.86
2017-05-10T12:48:13.069Z,15.97
2017-05-10T12:49:13.688Z,16.10
2017-05-10T12:50:14.314Z,16.01
2017-05-10T12:51:14.933Z,15.79
2017-05-10T12:52:15.553Z,15.91
2017-05-10T12:53:16.182Z,15.76
2017-05-10T12:54:16.800Z,15.51
2017-05-10T12:55:17.454Z,15.58
2017-05-10T12:56:18.076Z,15.75
2017-05-10T12:57:18.701Z,15.88
2017-05-10T12:58:19.321Z,15.94
2017-05-10T12:59:19.974Z,15.90
2017-05-10T13:00:20.597Z,16.05
2017-05-10T13:01:21.219Z,15.94
2017-05-10T13:02:21.846Z,15.86
2017-05-10T13:03:22.463Z,15.86
2017-05-10T13:04:23.137Z,15.92
2017-05-10T13:05:23.762Z,15.94
2017-05-10T13:06:24.380Z,16.10
2017-05-10T13:07:25.033Z,16.23
2017-05-10T13:08:25.654Z,16.09
2017-05-10T13:09:26.277Z,15.98
2017-05-10T13:10:26.898Z,15.97
2017-05-10T13:11:27.520Z,16.04
2017-05-10T13:12:28.176Z,16.05
2017-05-10T13:13:28.795Z,16.04
2017-05-10T13:14:29.423Z,15.98
2017-05-10T13:15:30.043Z,16.02
2017-05-10T13:16:30.664Z,16.13
2017-05-10T13:17:31.286Z,16.17